Time;durP1;ratioP1;P1;durP2;ratioP2;P2;SDS_P1;SDS_P2;PMS_P1;PMS_P2;Temp;Humidity;BMP_temperature;BMP_pressure;BME280_temperature;BME280_humidity;BME280_pressure;Samples;Min_cycle;Max_cycle;Signal;HPM_P1;HPM_P2
2021/01/16 00:01:25;;;;;;;19.75;10.35;;;;;;;-1.40;71.29;100872.29;2136010;83;28809;-64
2021/01/16 00:04:27;;;;;;;17.48;9.15;;;;;;;-1.40;71.25;100870.97;2130957;83;31221;-66
2021/01/16 00:07:29;;;;;;;21.07;10.30;;;;;;;-1.43;71.27;100870.94;2095247;83;34057;-65
2021/01/16 00:10:34;;;;;;;20.85;10.72;;;;;;;-1.43;71.25;100870.94;2112380;84;29174;-65
2021/01/16 00:13:36;;;;;;;17.10;8.63;;;;;;;-1.42;71.31;100871.39;2176039;81;33027;-66
2021/01/16 00:16:38;;;;;;;17.70;9.93;;;;;;;-1.38;71.35;100873.60;2175593;81;29791;-65
2021/01/16 00:19:41;;;;;;;19.35;10.90;;;;;;;-1.41;71.17;100873.16;2178626;81;31155;-65
2021/01/16 00:22:50;;;;;;;21.23;10.13;;;;;;;-1.40;71.26;100883.22;2173121;81;33130;-65
2021/01/16 00:25:53;;;;;;;22.87;11.55;;;;;;;-1.41;71.20;100878.86;2172710;81;29591;-65
2021/01/16 00:28:56;;;;;;;20.05;11.12;;;;;;;-1.40;71.22;100885.84;2169517;81;27695;-65
2021/01/16 00:31:58;;;;;;;21.62;11.25;;;;;;;-1.42;71.14;100889.78;2131724;83;28943;-64
2021/01/16 00:35:00;;;;;;;22.80;11.35;;;;;;;-1.43;71.17;100890.66;2128832;83;31164;-67
2021/01/16 00:38:02;;;;;;;24.07;11.60;;;;;;;-1.45;71.13;100885.81;2150089;81;33130;-65
2021/01/16 00:41:05;;;;;;;19.65;9.95;;;;;;;-1.46;71.07;100894.56;2172432;81;29021;-64
2021/01/16 00:44:08;;;;;;;19.75;10.10;;;;;;;-1.49;71.05;100894.55;2165591;81;27588;-64
2021/01/16 00:47:10;;;;;;;19.77;8.93;;;;;;;-1.49;71.10;100891.93;2189212;80;28893;-64
2021/01/16 00:50:15;;;;;;;16.97;9.65;;;;;;;-1.51;70.96;100895.38;2221406;80;31145;-64
2021/01/16 00:53:18;;;;;;;19.55;8.93;;;;;;;-1.54;70.98;100892.31;2221148;80;33205;-65
2021/01/16 00:56:20;;;;;;;15.13;8.48;;;;;;;-1.56;70.99;100893.59;2221453;80;30128;-64
2021/01/16 00:59:22;;;;;;;18.40;8.83;;;;;;;-1.56;71.16;100885.70;2220881;80;27697;-65
2021/01/16 01:02:25;;;;;;;19.50;8.90;;;;;;;-1.53;70.90;100892.31;2183856;80;29233;-65
2021/01/16 01:05:27;;;;;;;17.98;8.73;;;;;;;-1.54;71.18;100889.68;2179946;81;32430;-65
2021/01/16 01:08:31;;;;;;;17.37;8.80;;;;;;;-1.55;71.22;100892.72;2183130;80;33001;-65
2021/01/16 01:11:33;;;;;;;13.68;7.78;;;;;;;-1.55;71.20;100893.17;2185112;81;29162;-66
2021/01/16 01:14:36;;;;;;;15.78;8.88;;;;;;;-1.55;71.24;100889.23;2202779;80;27669;-66
2021/01/16 01:17:38;;;;;;;15.50;7.75;;;;;;;-1.51;71.37;100888.81;2208056;80;28224;-66
2021/01/16 01:20:40;;;;;;;18.40;9.08;;;;;;;-1.51;71.30;100882.25;2196847;80;32135;-66
2021/01/16 01:23:42;;;;;;;18.75;8.95;;;;;;;-1.49;71.23;100886.67;2198330;80;34448;-66
2021/01/16 01:26:45;;;;;;;17.98;8.93;;;;;;;-1.48;71.38;100886.22;2184695;81;29246;-66
2021/01/16 01:29:47;;;;;;;17.02;9.43;;;;;;;-1.44;71.44;100882.77;2185317;81;27638;-65
2021/01/16 01:32:50;;;;;;;18.80;9.30;;;;;;;-1.44;71.47;100888.89;2124465;81;29740;-65
2021/01/16 01:35:52;;;;;;;15.55;8.50;;;;;;;-1.38;71.43;100884.12;2116065;83;31161;-65
2021/01/16 01:38:54;;;;;;;15.48;7.97;;;;;;;-1.36;71.44;100882.83;2127677;83;33273;-65
2021/01/16 01:41:56;;;;;;;15.35;8.40;;;;;;;-1.36;71.41;100885.02;2094016;84;29154;-66
2021/01/16 01:44:58;;;;;;;20.45;9.75;;;;;;;-1.34;71.41;100885.05;2096124;84;27657;-65
2021/01/16 01:48:01;;;;;;;16.02;8.00;;;;;;;-1.31;71.42;100888.57;2095592;84;28813;-65
2021/01/16 01:51:03;;;;;;;19.37;9.68;;;;;;;-1.28;71.50;100883.77;2095101;84;31156;-66
2021/01/16 01:54:06;;;;;;;17.77;8.38;;;;;;;-1.25;71.29;100886.01;2095157;84;33127;-66
2021/01/16 01:57:10;;;;;;;15.50;8.63;;;;;;;-1.27;71.31;100882.90;2095496;84;29205;-66
2021/01/16 02:00:15;;;;;;;14.83;7.72;;;;;;;-1.25;71.30;100884.70;2096139;84;27637;-65
2021/01/16 02:03:23;;;;;;;16.97;8.28;;;;;;;-1.26;71.43;100884.25;2088324;84;28533;-65
2021/01/16 02:06:25;;;;;;;15.40;7.95;;;;;;;-1.23;71.45;100886.88;2099978;84;32069;-66
2021/01/16 02:09:27;;;;;;;14.38;8.53;;;;;;;-1.21;71.42;100889.53;2067479;84;33199;-66
2021/01/16 02:12:30;;;;;;;15.18;7.60;;;;;;;-1.19;71.41;100886.48;2126685;83;29208;-66
2021/01/16 02:15:42;;;;;;;16.55;8.83;;;;;;;-1.17;71.40;100891.33;2128157;83;28151;-65
2021/01/16 02:18:47;;;;;;;18.65;9.75;;;;;;;-1.16;71.33;100890.46;2125950;83;28830;-64
2021/01/16 02:21:50;;;;;;;22.03;8.60;;;;;;;-1.18;71.40;100888.67;2127491;83;31156;-64
2021/01/16 02:25:14;;;;;;;13.38;7.62;;;;;;;-1.19;71.33;100885.59;2058412;84;33104;-64
2021/01/16 02:28:24;;;;;;;18.07;9.03;;;;;;;-1.23;71.31;100882.06;2085194;85;29175;-64
2021/01/16 02:31:31;;;;;;;16.95;8.23;;;;;;;-1.21;71.50;100884.28;2081843;84;27736;-64
2021/01/16 02:34:37;;;;;;;15.30;9.20;;;;;;;-1.19;71.56;100877.70;2137919;81;28830;-66
2021/01/16 02:38:06;;;;;;;16.07;8.53;;;;;;;-1.18;71.39;100881.68;2158825;81;31362;-66
2021/01/16 02:41:19;;;;;;;18.23;9.35;;;;;;;-1.18;71.46;100880.36;2145134;82;34463;-64
2021/01/16 02:44:36;;;;;;;15.95;7.70;;;;;;;-1.19;71.32;100880.33;2095357;83;29670;-64
2021/01/16 02:48:14;;;;;;;17.73;9.68;;;;;;;-1.22;71.31;100872.00;2178408;80;27784;-65
2021/01/16 02:51:21;;;;;;;13.93;7.58;;;;;;;-1.25;71.41;100876.81;2221170;80;28804;-64
2021/01/16 02:54:23;;;;;;;11.90;7.95;;;;;;;-1.22;71.40;100879.44;2220787;80;30953;-64
2021/01/16 02:57:25;;;;;;;14.23;7.33;;;;;;;-1.22;71.44;100879.44;2190214;80;34088;-64
2021/01/16 03:00:28;;;;;;;17.57;8.78;;;;;;;-1.23;71.36;100879.44;2220193;80;29681;-65
2021/01/16 03:03:33;;;;;;;14.28;8.00;;;;;;;-1.22;71.41;100882.06;2221507;80;27672;-65
2021/01/16 03:06:41;;;;;;;13.88;8.13;;;;;;;-1.24;71.30;100884.25;2221166;80;28738;-65
2021/01/16 03:09:43;;;;;;;16.32;8.15;;;;;;;-1.24;71.36;100882.48;2180516;81;31155;-65
2021/01/16 03:12:45;;;;;;;15.15;8.25;;;;;;;-1.22;71.55;100883.38;2142672;83;32926;-65
2021/01/16 03:15:48;;;;;;;14.23;7.50;;;;;;;-1.19;71.44;100887.80;2181826;81;30112;-66
2021/01/16 03:18:51;;;;;;;19.87;9.60;;;;;;;-1.18;71.31;100885.63;2154067;81;27772;-64
2021/01/16 03:21:53;;;;;;;16.67;8.63;;;;;;;-1.18;71.37;100887.35;2166049;82;29058;-64
2021/01/16 03:24:57;;;;;;;16.02;8.33;;;;;;;-1.20;71.31;100883.41;2144099;83;31118;-64
2021/01/16 03:28:00;;;;;;;14.40;7.58;;;;;;;-1.19;71.29;100884.28;2172655;81;33125;-64
2021/01/16 03:31:02;;;;;;;15.80;8.23;;;;;;;-1.23;71.37;100882.93;2142999;83;29458;-66
2021/01/16 03:34:05;;;;;;;15.88;7.70;;;;;;;-1.26;71.27;100882.93;2185238;80;28097;-66
2021/01/16 03:37:07;;;;;;;17.45;8.75;;;;;;;-1.26;71.28;100889.50;2187271;80;27777;-65
2021/01/16 03:40:10;;;;;;;30.45;13.20;;;;;;;-1.26;71.42;100882.93;2204495;80;31138;-66
2021/01/16 03:43:14;;;;;;;19.50;9.63;;;;;;;-1.25;71.37;100887.33;2185137;81;33153;-65
2021/01/16 03:46:16;;;;;;;15.60;7.78;;;;;;;-1.23;71.28;100883.38;2184854;81;29157;-66
2021/01/16 03:49:18;;;;;;;14.28;7.72;;;;;;;-1.26;71.36;100888.19;2170706;81;27713;-69
2021/01/16 03:52:33;;;;;;;13.72;7.97;;;;;;;-1.26;71.37;100885.98;2180547;81;28777;-68
2021/01/16 03:55:35;;;;;;;15.75;7.72;;;;;;;-1.29;71.29;100880.69;2180141;81;31144;-66
2021/01/16 03:58:37;;;;;;;12.90;7.40;;;;;;;-1.31;71.32;100883.73;2180632;81;33338;-68
2021/01/16 04:01:41;;;;;;;17.82;9.00;;;;;;;-1.32;71.40;100877.61;2144612;81;30047;-68
2021/01/16 04:04:44;;;;;;;13.68;7.25;;;;;;;-1.33;71.35;100877.61;2175055;81;27682;-67
2021/01/16 04:07:50;;;;;;;15.40;8.08;;;;;;;-1.38;71.31;100874.50;2146300;82;28809;-67
2021/01/16 04:10:52;;;;;;;14.43;7.55;;;;;;;-1.37;71.46;100877.99;2159344;82;32031;-67
2021/01/16 04:13:54;;;;;;;11.88;7.70;;;;;;;-1.41;71.43;100873.16;2211663;80;33166;-69
2021/01/16 04:16:56;;;;;;;14.47;7.50;;;;;;;-1.42;71.56;100868.77;2199283;80;30113;-68
2021/01/16 04:19:58;;;;;;;15.13;8.88;;;;;;;-1.41;71.60;100880.17;2185342;81;27661;-66
2021/01/16 04:23:00;;;;;;;16.57;8.35;;;;;;;-1.43;71.54;100873.57;2185314;81;28879;-66
2021/01/16 04:26:03;;;;;;;13.35;7.62;;;;;;;-1.45;71.58;100875.30;2185268;81;31625;-65
2021/01/16 04:29:05;;;;;;;16.30;8.60;;;;;;;-1.47;71.47;100870.45;2203671;80;33338;-65
2021/01/16 04:32:08;;;;;;;15.20;8.40;;;;;;;-1.48;71.45;100870.01;2221193;80;29605;-65
2021/01/16 04:35:11;;;;;;;13.53;7.62;;;;;;;-1.47;71.46;100868.28;2207693;80;27748;-65
2021/01/16 04:38:13;;;;;;;13.28;8.08;;;;;;;-1.46;71.53;100868.73;2178089;81;28796;-69
2021/01/16 04:41:15;;;;;;;15.50;8.20;;;;;;;-1.47;71.48;100862.58;2177157;81;31140;-67
2021/01/16 04:44:22;;;;;;;11.03;7.45;;;;;;;-1.47;71.54;100866.52;2153687;81;34063;-66
2021/01/16 04:47:27;;;;;;;12.82;7.80;;;;;;;-1.48;71.34;100863.89;2174758;81;29414;-66
2021/01/16 04:50:32;;;;;;;14.20;8.40;;;;;;;-1.51;71.41;100858.60;2130687;83;27705;-66
2021/01/16 04:53:40;;;;;;;19.32;9.05;;;;;;;-1.51;71.50;100865.17;2131113;83;28880;-68
2021/01/16 04:56:43;;;;;;;19.90;8.93;;;;;;;-1.51;71.46;100864.75;2131069;83;32176;-69
2021/01/16 04:59:47;;;;;;;19.02;9.38;;;;;;;-1.51;71.38;100863.44;2132057;83;33230;-68
2021/01/16 05:02:51;;;;;;;20.48;9.23;;;;;;;-1.51;71.46;100866.06;2129907;83;29706;-67
2021/01/16 05:05:53;;;;;;;16.25;8.70;;;;;;;-1.48;71.56;100865.20;2129675;83;27757;-70
2021/01/16 05:08:58;;;;;;;18.40;8.48;;;;;;;-1.49;71.52;100866.06;2120104;83;30127;-69
2021/01/16 05:12:08;;;;;;;14.98;7.45;;;;;;;-1.47;71.52;100870.91;2116329;84;31145;-67
2021/01/16 05:15:21;;;;;;;15.00;8.03;;;;;;;-1.47;71.61;100866.52;2170968;81;33129;-67
2021/01/16 05:18:24;;;;;;;14.13;7.80;;;;;;;-1.45;71.54;100869.18;2173082;81;29162;-68
2021/01/16 05:21:26;;;;;;;14.58;8.65;;;;;;;-1.43;71.55;100865.69;2175338;81;27731;-69
2021/01/16 05:24:29;;;;;;;18.07;8.08;;;;;;;-1.45;71.44;100863.47;2179155;81;30074;-68
2021/01/16 05:27:37;;;;;;;14.65;8.68;;;;;;;-1.45;71.49;100866.10;2178961;81;31194;-68
2021/01/16 05:30:51;;;;;;;15.38;7.20;;;;;;;-1.45;71.56;100862.16;2178144;81;33065;-66
2021/01/16 05:33:53;;;;;;;12.95;7.42;;;;;;;-1.47;71.53;100858.63;2177523;81;29162;-67
2021/01/16 05:36:57;;;;;;;14.07;7.95;;;;;;;-1.45;71.56;100854.73;2157522;81;27712;-67
2021/01/16 05:40:00;;;;;;;14.20;7.90;;;;;;;-1.48;71.48;100855.55;2174813;81;28798;-65
2021/01/16 05:43:02;;;;;;;16.05;8.80;;;;;;;-1.48;71.43;100863.89;2173701;81;31146;-66
2021/01/16 05:46:12;;;;;;;12.30;7.45;;;;;;;-1.51;71.57;100858.60;2142621;83;33090;-68
2021/01/16 05:49:16;;;;;;;16.65;8.78;;;;;;;-1.50;71.57;100855.11;2143123;83;29168;-67
2021/01/16 05:52:18;;;;;;;16.23;9.60;;;;;;;-1.49;71.59;100859.08;2142895;82;27681;-65
2021/01/16 05:55:22;;;;;;;17.77;8.50;;;;;;;-1.45;71.64;100862.16;2123122;82;28815;-67
2021/01/16 05:58:34;;;;;;;15.70;8.63;;;;;;;-1.43;71.59;100855.17;2142928;83;34800;-67
2021/01/16 06:01:38;;;;;;;14.13;8.98;;;;;;;-1.41;71.50;100857.84;2142603;83;33953;-66
2021/01/16 06:04:47;;;;;;;13.20;8.23;;;;;;;-1.42;71.53;100858.25;2142322;83;29207;-65
2021/01/16 06:07:52;;;;;;;10.90;6.75;;;;;;;-1.43;71.27;100859.12;2065014;85;27739;-67
2021/01/16 06:10:56;;;;;;;19.82;9.95;;;;;;;-1.48;71.18;100854.24;2160916;81;30091;-66
2021/01/16 06:14:01;;;;;;;15.30;7.47;;;;;;;-1.56;71.22;100841.48;2184574;81;31126;-64
2021/01/16 06:17:11;;;;;;;11.40;7.43;;;;;;;-1.50;71.35;100849.85;2187324;80;33560;-67
2021/01/16 06:20:21;;;;;;;12.00;7.53;;;;;;;-1.51;71.25;100854.66;2163662;81;29176;-66
2021/01/16 06:23:37;;;;;;;11.93;7.45;;;;;;;-1.52;71.32;100852.48;2185281;81;28119;-67
2021/01/16 06:26:43;;;;;;;17.23;10.90;;;;;;;-1.52;71.35;100857.73;2185759;81;28869;-66
2021/01/16 06:30:00;;;;;;;29.77;11.38;;;;;;;-1.49;71.36;100850.30;2186023;80;31116;-66
2021/01/16 06:33:05;;;;;;;14.90;7.28;;;;;;;-1.48;71.21;100847.67;2185236;81;33393;-66
2021/01/16 06:36:07;;;;;;;13.80;7.58;;;;;;;-1.48;71.19;100851.62;2200558;80;29169;-66
2021/01/16 06:39:10;;;;;;;14.03;7.25;;;;;;;-1.51;70.99;100850.72;2198003;80;27724;-66
2021/01/16 06:42:16;;;;;;;12.25;6.92;;;;;;;-1.53;71.02;100858.60;2185045;81;29769;-65
2021/01/16 06:45:24;;;;;;;15.60;8.40;;;;;;;-1.58;70.87;100857.66;2184276;80;32033;-65
2021/01/16 06:48:30;;;;;;;25.20;8.15;;;;;;;-1.60;71.03;100852.83;2184886;81;33204;-65
2021/01/16 06:51:32;;;;;;;15.43;10.65;;;;;;;-1.59;71.00;100859.84;2181049;80;30264;-65
2021/01/16 06:54:36;;;;;;;13.80;7.65;;;;;;;-1.59;70.96;100855.91;2174746;81;28163;-65
2021/01/16 06:57:39;;;;;;;15.47;11.00;;;;;;;-1.56;70.99;100855.48;2174996;81;29819;-65
2021/01/16 07:00:41;;;;;;;19.37;10.35;;;;;;;-1.59;70.73;100852.86;2221511;80;30234;-65
2021/01/16 07:03:46;;;;;;;12.80;6.83;;;;;;;-1.59;70.78;100856.80;2196181;80;34086;-66
2021/01/16 07:06:48;;;;;;;;;;;;;;;-1.62;70.61;100850.61;2187559;81;29366;-65
2021/01/16 07:09:51;;;;;;;14.15;7.15;;;;;;;-1.64;70.61;100861.13;2183961;81;28025;-66
2021/01/16 07:12:53;;;;;;;14.75;7.53;;;;;;;-1.66;70.74;100856.73;2141581;81;28825;-65
2021/01/16 07:15:56;;;;;;;11.20;6.80;;;;;;;-1.63;70.72;100864.20;2134635;83;32136;-65
2021/01/16 07:18:58;;;;;;;13.35;7.15;;;;;;;-1.65;70.38;100865.92;2178227;81;34060;-65
2021/01/16 07:22:00;;;;;;;10.53;6.05;;;;;;;-1.67;70.39;100877.30;2137612;82;29165;-64
2021/01/16 07:25:06;;;;;;;11.88;6.62;;;;;;;-1.67;70.28;100879.48;2144388;82;27707;-64
2021/01/16 07:28:10;;;;;;;12.23;6.80;;;;;;;-1.66;70.46;100879.92;2162090;82;29742;-64
2021/01/16 07:31:13;;;;;;;11.85;6.53;;;;;;;-1.67;70.08;100879.48;2131835;82;31201;-64
2021/01/16 07:34:15;;;;;;;13.43;7.00;;;;;;;-1.69;70.11;100882.52;2125306;82;32508;-65
2021/01/16 07:37:17;;;;;;;11.18;7.17;;;;;;;-1.71;69.99;100879.89;2184401;81;29334;-64
2021/01/16 07:40:23;;;;;;;14.58;7.03;;;;;;;-1.75;69.92;100878.53;2185183;81;27679;-65
2021/01/16 07:43:51;;;;;;;11.30;5.83;;;;;;;-1.79;69.75;100878.91;2185221;81;28787;-64
2021/01/16 07:46:55;;;;;;;9.88;5.75;;;;;;;-1.87;69.59;100882.77;2164417;81;31401;-66
2021/01/16 07:49:58;;;;;;;14.95;6.50;;;;;;;-1.94;69.30;100877.43;2142957;83;33112;-64
2021/01/16 07:53:06;;;;;;;13.98;6.47;;;;;;;-1.98;69.29;100877.84;2143114;83;29144;-66
2021/01/16 07:56:23;;;;;;;10.80;6.10;;;;;;;-2.01;69.55;100868.61;2143462;83;27677;-66
2021/01/16 07:59:34;;;;;;;10.82;5.87;;;;;;;-1.95;69.67;100872.62;2114727;81;29875;-65
2021/01/16 08:02:58;;;;;;;15.20;7.28;;;;;;;-1.94;69.48;100874.39;2136051;80;31081;-66
2021/01/16 08:06:18;;;;;;;15.98;9.08;;;;;;;-1.88;69.56;100867.87;2220471;79;34467;-66
2021/01/16 08:09:48;;;;;;;26.25;13.03;;;;;;;-1.80;69.67;100871.03;2113094;83;29169;-66
2021/01/16 08:12:57;;;;;;;14.73;8.58;;;;;;;-1.74;69.62;100868.48;2147615;82;27622;-64
2021/01/16 08:16:02;;;;;;;17.80;11.20;;;;;;;-1.72;69.34;100864.09;2107078;84;29791;-64
2021/01/16 08:19:13;;;;;;;15.00;8.88;;;;;;;-1.70;69.32;100863.27;2162136;82;31137;-65
2021/01/16 08:22:17;;;;;;;12.18;9.28;;;;;;;-1.67;69.36;100867.66;2221520;80;34027;-64
2021/01/16 08:25:25;;;;;;;17.42;9.68;;;;;;;-1.67;69.22;100862.84;2221600;80;37206;-64
2021/01/16 08:28:28;;;;;;;21.15;11.28;;;;;;;-1.65;69.20;100863.75;2196672;80;28179;-64
2021/01/16 08:31:31;;;;;;;16.95;10.63;;;;;;;-1.62;69.01;100870.31;2185704;80;28820;-65
2021/01/16 08:34:57;;;;;;;21.17;14.40;;;;;;;-1.58;69.16;100866.45;2185435;81;31148;-65
2021/01/16 08:38:21;;;;;;;21.42;12.47;;;;;;;-1.55;68.81;100865.58;2180678;81;34047;-65
2021/01/16 08:41:26;;;;;;;19.95;12.07;;;;;;;-1.43;68.98;100863.51;2184145;81;29170;-67
2021/01/16 08:44:48;;;;;;;61.92;25.02;;;;;;;-1.37;68.70;100863.54;2184531;81;27690;-66
2021/01/16 08:47:53;;;;;;;72.70;23.22;;;;;;;-1.32;68.42;100867.55;2183294;81;28805;-65
2021/01/16 08:50:56;;;;;;;42.30;16.23;;;;;;;-1.32;68.14;100866.23;2184532;80;31121;-64
2021/01/16 08:54:21;;;;;;;70.67;26.70;;;;;;;-1.30;68.14;100865.36;2184338;81;33598;-66
2021/01/16 08:57:29;;;;;;;34.48;17.05;;;;;;;-1.30;67.87;100861.84;2184782;81;29173;-66
2021/01/16 09:00:33;;;;;;;16.82;10.25;;;;;;;-1.31;67.53;100860.08;2178785;81;27856;-67
2021/01/16 09:03:36;;;;;;;25.23;12.40;;;;;;;-1.36;67.63;100850.84;2183733;81;28804;-66
2021/01/16 09:06:38;;;;;;;15.53;8.30;;;;;;;-1.32;67.87;100857.03;2169425;81;32076;-66
2021/01/16 09:09:41;;;;;;;12.25;7.22;;;;;;;-1.26;67.68;100854.43;2168353;81;33101;-65
2021/01/16 09:12:45;;;;;;;9.45;6.10;;;;;;;-1.19;67.84;100854.05;2124511;82;29154;-66
2021/01/16 09:15:49;;;;;;;10.78;6.03;;;;;;;-1.10;67.64;100860.25;2130787;83;27664;-68
2021/01/16 09:18:55;;;;;;;12.80;6.90;;;;;;;-1.05;67.22;100856.78;2130271;83;28891;-67
2021/01/16 09:22:17;;;;;;;25.12;11.43;;;;;;;-1.05;67.07;100855.02;2141256;81;31148;-66
2021/01/16 09:25:23;;;;;;;18.95;9.05;;;;;;;-0.99;66.57;100859.47;2174747;81;34073;-67
2021/01/16 09:28:52;;;;;;;14.00;7.30;;;;;;;-0.96;66.87;100862.99;2174753;81;29168;-66
2021/01/16 09:31:55;;;;;;;15.43;7.85;;;;;;;-0.87;66.98;100862.59;2176507;81;27702;-66
2021/01/16 09:34:58;;;;;;;24.18;10.23;;;;;;;-0.86;66.27;100860.41;2184112;81;28807;-68
2021/01/16 09:38:03;;;;;;;21.55;9.40;;;;;;;-0.88;66.35;100857.78;2180121;79;32112;-68
2021/01/16 09:41:30;;;;;;;24.27;10.48;;;;;;;-0.89;66.03;100858.66;2178245;81;33158;-67
2021/01/16 09:44:50;;;;;;;29.25;14.03;;;;;;;-0.93;66.06;100862.12;2172367;81;30040;-70
2021/01/16 09:47:53;;;;;;;17.25;9.60;;;;;;;-0.88;66.40;100862.14;2171778;81;27708;-66
2021/01/16 09:51:00;;;;;;;28.05;13.50;;;;;;;-0.79;66.45;100856.96;2173652;81;28848;-66
2021/01/16 09:54:10;;;;;;;22.45;11.90;;;;;;;-0.68;66.50;100845.19;2178495;81;31208;-65
2021/01/16 09:57:36;;;;;;;16.10;8.73;;;;;;;-0.48;66.46;100845.28;2248683;78;27681;-66
2021/01/16 10:00:39;;;;;;;11.83;6.58;;;;;;;-0.41;66.28;100849.68;2228303;79;27604;-65
2021/01/16 10:03:43;;;;;;;10.10;5.67;;;;;;;-0.29;66.72;100840.09;2212819;79;28806;-66
2021/01/16 10:06:46;;;;;;;12.55;7.08;;;;;;;-0.21;65.42;100833.09;2189241;81;31134;-66
2021/01/16 10:09:50;;;;;;;9.63;6.10;;;;;;;-0.19;65.87;100823.45;2188992;81;33098;-66
2021/01/16 10:13:02;;;;;;;11.78;6.15;;;;;;;-0.21;65.75;100812.92;2189491;79;28546;-66
2021/01/16 10:16:12;;;;;;;11.15;6.33;;;;;;;-0.21;65.66;100812.92;2189360;81;27734;-67
2021/01/16 10:19:16;;;;;;;11.83;8.00;;;;;;;-0.24;65.73;100815.95;2188592;81;28846;-67
2021/01/16 10:22:20;;;;;;;35.58;14.00;;;;;;;-0.27;65.58;100814.20;2189554;81;30485;-67
2021/01/16 10:25:36;;;;;;;61.28;20.60;;;;;;;-0.31;65.99;100797.95;2150460;82;33072;-68
2021/01/16 10:28:55;;;;;;;24.02;11.85;;;;;;;-0.25;65.91;100799.30;2217941;80;29744;-67
2021/01/16 10:32:20;;;;;;;45.83;15.85;;;;;;;-0.25;65.97;100797.98;2217283;80;27700;-66
2021/01/16 10:35:33;;;;;;;52.50;19.97;;;;;;;-0.20;65.70;100779.55;2237504;77;36905;-65
2021/01/16 10:38:52;;;;;;;58.75;22.45;;;;;;;-0.25;65.94;100782.19;2189389;81;28106;-69
2021/01/16 10:41:54;;;;;;;26.42;13.18;;;;;;;-0.21;65.61;100782.64;2188949;81;28974;-67
2021/01/16 10:45:01;;;;;;;27.05;12.88;;;;;;;-0.20;66.09;100775.19;2212279;79;32127;-69
2021/01/16 10:48:18;;;;;;;18.70;10.03;;;;;;;-0.14;66.13;100770.37;2181345;81;33097;-68
2021/01/16 10:51:23;;;;;;;27.55;14.40;;;;;;;-0.12;66.04;100759.40;2198557;80;29518;-68
2021/01/16 10:54:26;;;;;;;15.65;8.83;;;;;;;-0.06;65.90;100751.94;2199512;80;27636;-65
2021/01/16 10:57:49;;;;;;;17.60;8.93;;;;;;;-0.06;65.66;100742.73;2125745;82;28851;-65
2021/01/16 11:00:58;;;;;;;12.80;8.18;;;;;;;-0.03;65.77;100731.75;2178842;81;32464;-65
2021/01/16 11:04:03;;;;;;;16.57;8.10;;;;;;;0.07;66.03;100727.82;2179429;81;33116;-65
2021/01/16 11:07:09;;;;;;;15.38;8.73;;;;;;;0.09;65.60;100726.93;2174327;80;29802;-65
2021/01/16 11:10:15;;;;;;;16.65;7.95;;;;;;;0.06;65.71;100713.75;2179847;80;27814;-65
2021/01/16 11:13:24;;;;;;;13.55;7.67;;;;;;;-0.06;65.47;100683.47;2178945;80;28803;-68
2021/01/16 11:16:27;;;;;;;20.05;8.50;;;;;;;0.06;66.21;100704.53;2179419;81;31156;-68
2021/01/16 11:19:40;;;;;;;17.35;8.18;;;;;;;0.19;66.14;100697.94;2205303;80;33130;-67
2021/01/16 11:22:43;;;;;;;14.78;8.30;;;;;;;0.26;66.01;100695.75;2216246;80;28652;-65
2021/01/16 11:25:47;;;;;;;16.02;8.00;;;;;;;0.32;65.91;100700.13;2212706;80;28163;-65
2021/01/16 11:28:54;;;;;;;14.10;7.83;;;;;;;0.34;65.98;100687.38;2218305;80;28831;-64
2021/01/16 11:31:59;;;;;;;16.00;8.18;;;;;;;0.38;65.53;100688.28;2217040;80;31147;-65
2021/01/16 11:35:08;;;;;;;;;;;;;;;0.34;65.48;100679.48;2127571;81;33130;-67
2021/01/16 11:38:49;;;;;;;17.57;9.10;;;;;;;0.30;65.71;100674.66;2140298;83;28860;-65
2021/01/16 11:41:54;;;;;;;13.95;7.58;;;;;;;0.33;65.84;100674.22;2143563;82;27763;-68
2021/01/16 11:45:01;;;;;;;12.90;7.95;;;;;;;0.30;65.39;100668.07;2180169;81;28863;-67
2021/01/16 11:48:07;;;;;;;16.82;8.38;;;;;;;0.26;65.87;100665.45;2177546;81;31125;-67
2021/01/16 11:51:18;;;;;;;14.98;8.68;;;;;;;0.25;65.87;100657.97;2174311;81;33116;-66
2021/01/16 11:54:27;;;;;;;16.40;7.40;;;;;;;0.21;65.58;100660.62;2175340;81;29824;-66
2021/01/16 11:57:30;;;;;;;12.55;8.05;;;;;;;0.17;65.64;100665.47;2182545;81;27732;-67
2021/01/16 12:00:33;;;;;;;14.03;8.03;;;;;;;0.11;66.00;100654.48;2136649;83;28811;-68
2021/01/16 12:03:36;;;;;;;12.45;7.72;;;;;;;0.10;65.79;100647.03;2145149;83;31643;-67
2021/01/16 12:06:39;;;;;;;14.53;8.68;;;;;;;0.12;66.22;100644.37;2138043;83;34284;-67
2021/01/16 12:09:44;;;;;;;24.43;12.70;;;;;;;0.11;65.90;100645.25;2144714;81;29775;-68
2021/01/16 12:12:46;;;;;;;19.40;13.57;;;;;;;0.08;66.19;100641.33;2138769;83;27725;-65
2021/01/16 12:15:54;;;;;;;31.60;16.93;;;;;;;0.12;65.95;100636.48;2138424;83;28816;-67
2021/01/16 12:18:56;;;;;;;30.35;17.73;;;;;;;0.11;65.94;100633.41;2164605;81;32308;-67
2021/01/16 12:22:03;;;;;;;17.10;9.38;;;;;;;0.19;66.19;100628.13;2175045;81;33098;-67
2021/01/16 12:25:11;;;;;;;16.50;9.83;;;;;;;0.22;65.73;100626.38;2175636;81;28934;-67
2021/01/16 12:28:15;;;;;;;16.45;10.10;;;;;;;0.22;65.97;100616.27;2175506;81;27717;-67
2021/01/16 12:31:25;;;;;;;17.00;10.68;;;;;;;0.22;66.11;100617.58;2174671;80;28761;-67
2021/01/16 12:34:27;;;;;;;22.25;12.55;;;;;;;0.24;66.32;100611.88;2176075;81;32051;-67
2021/01/16 12:37:32;;;;;;;23.52;13.55;;;;;;;0.23;66.24;100611.44;2176973;81;33145;-66
2021/01/16 12:40:34;;;;;;;19.55;11.15;;;;;;;0.16;65.94;100603.98;2177528;81;28918;-66
2021/01/16 12:43:37;;;;;;;19.90;10.38;;;;;;;0.09;66.36;100599.59;2143704;81;27622;-67
2021/01/16 12:46:42;;;;;;;18.73;10.90;;;;;;;0.08;66.48;100597.88;2217479;80;29748;-67
2021/01/16 12:49:49;;;;;;;;;;;;;;;0.06;66.64;100593.91;2219386;80;31124;-66
2021/01/16 12:52:54;;;;;;;18.23;10.82;;;;;;;0.03;66.77;100596.98;2216522;80;33987;-66
2021/01/16 12:55:56;;;;;;;21.68;12.43;;;;;;;-0.13;66.95;100586.48;2216372;80;28858;-66
2021/01/16 12:58:59;;;;;;;19.62;10.15;;;;;;;-0.21;66.97;100581.64;2217525;80;27596;-67
2021/01/16 13:02:01;;;;;;;20.88;11.28;;;;;;;-0.26;67.02;100579.47;2208959;80;29831;-66
2021/01/16 13:05:11;;;;;;;26.90;14.03;;;;;;;-0.39;66.79;100570.24;2178342;81;31209;-67
2021/01/16 13:08:17;;;;;;;20.55;12.23;;;;;;;-0.56;66.68;100576.84;2178248;81;33137;-66
2021/01/16 13:11:24;;;;;;;23.02;12.00;;;;;;;-0.67;67.06;100574.19;2177822;81;29731;-66
2021/01/16 13:14:50;;;;;;;20.68;12.05;;;;;;;-0.71;67.57;100575.05;2179580;79;27617;-66
2021/01/16 13:17:53;;;;;;;26.10;14.58;;;;;;;-0.74;67.70;100575.50;2209636;78;29067;-66
2021/01/16 13:20:59;;;;;;;26.05;12.85;;;;;;;-0.78;67.67;100575.48;2217150;80;30941;-66
2021/01/16 13:24:02;;;;;;;21.62;11.85;;;;;;;-0.78;68.00;100573.31;2216503;80;34062;-66
2021/01/16 13:27:05;;;;;;;22.22;11.75;;;;;;;-0.81;67.84;100564.09;2215766;80;28870;-67
2021/01/16 13:30:14;;;;;;;20.37;11.18;;;;;;;-0.85;68.02;100566.27;2216885;80;27698;-64
2021/01/16 13:33:25;;;;;;;22.25;12.33;;;;;;;-0.93;68.02;100568.89;2217118;80;29804;-64
2021/01/16 13:36:29;;;;;;;39.10;17.65;;;;;;;-0.93;68.46;100562.31;2206087;80;31557;-64
2021/01/16 13:39:34;;;;;;;99.40;32.60;;;;;;;-0.93;68.62;100559.69;2178228;81;34211;-63
2021/01/16 13:42:38;;;;;;;;;;;;;;;-0.92;68.58;100557.08;2180907;81;29825;-64
2021/01/16 13:45:40;;;;;;;43.50;19.73;;;;;;;-0.92;68.73;100553.55;2178244;81;27717;-63
2021/01/16 13:48:50;;;;;;;53.75;23.75;;;;;;;-0.92;68.82;100549.61;2211811;80;29820;-65
2021/01/16 13:52:07;;;;;;;30.68;16.10;;;;;;;-0.94;68.71;100541.73;2214337;80;31230;-64
2021/01/16 13:55:19;;;;;;;31.97;17.35;;;;;;;-1.03;68.63;100528.55;2194837;80;33096;-66
2021/01/16 13:58:21;;;;;;;38.80;18.92;;;;;;;-1.10;68.76;100525.48;2200594;80;28867;-66
2021/01/16 14:01:40;;;;;;;36.30;19.65;;;;;;;-1.15;68.81;100517.56;2200849;80;27704;-66
2021/01/16 14:04:42;;;;;;;36.17;20.27;;;;;;;-1.19;68.95;100514.52;2189684;80;28717;-65
2021/01/16 14:07:45;;;;;;;28.75;15.53;;;;;;;-1.25;69.08;100514.07;2173531;81;32117;-64
2021/01/16 14:10:47;;;;;;;36.00;18.90;;;;;;;-1.29;69.27;100516.24;2173366;81;34039;-65
2021/01/16 14:13:50;;;;;;;29.75;16.40;;;;;;;-1.34;69.21;100510.09;2143974;81;28851;-64
2021/01/16 14:17:23;;;;;;;29.70;17.35;;;;;;;-1.40;69.45;100517.52;2200596;80;27602;-64